Time;durP1;ratioP1;P1;durP2;ratioP2;P2;SDS_P1;SDS_P2;PMS_P1;PMS_P2;Temp;Humidity;BMP_temperature;BMP_pressure;BME280_temperature;BME280_humidity;BME280_pressure;Samples;Min_cycle;Max_cycle;Signal;HPM_P1;HPM_P2
2021/06/30 00:00:44;;;;;;;4.35;2.40;;;18.40;64.00;;;;;;5137815;27;20365;-76
2021/06/30 00:03:32;;;;;;;3.60;2.15;;;18.40;64.00;;;;;;5058042;27;1325592;-75
2021/06/30 00:06:20;;;;;;;3.63;2.30;;;18.40;64.00;;;;;;5138236;27;20418;-77
2021/06/30 00:09:10;;;;;;;5.78;2.15;;;18.40;64.00;;;;;;5137262;27;20420;-75
2021/06/30 00:11:56;;;;;;;4.20;2.17;;;18.30;64.10;;;;;;5140872;27;20404;-75
2021/06/30 00:14:47;;;;;;;3.63;2.13;;;18.30;64.10;;;;;;5074437;27;1407301;-77
2021/06/30 00:17:32;;;;;;;2.85;2.17;;;18.30;64.10;;;;;;5117408;27;21385;-77
2021/06/30 00:20:21;;;;;;;5.38;2.42;;;18.30;64.10;;;;;;5062852;27;1343249;-77
2021/06/30 00:23:14;;;;;;;4.88;2.22;;;18.20;64.10;;;;;;5131251;27;20437;-77
2021/06/30 00:26:03;;;;;;;4.13;2.40;;;18.20;64.20;;;;;;5136038;27;20717;-77
2021/06/30 00:28:50;;;;;;;5.45;1.90;;;18.20;64.20;;;;;;4962868;27;3907051;-77
2021/06/30 00:31:42;;;;;;;5.82;2.20;;;18.20;64.30;;;;;;5100383;27;20492;-75
2021/06/30 00:34:28;;;;;;;3.45;2.40;;;18.10;64.40;;;;;;5024101;27;2563377;-76
2021/06/30 00:37:14;;;;;;;4.22;2.35;;;18.10;64.50;;;;;;5042706;27;2106649;-77
2021/06/30 00:40:03;;;;;;;3.05;2.38;;;18.00;64.50;;;;;;5030876;27;2299416;-77
2021/06/30 00:42:53;;;;;;;10.52;2.60;;;18.00;64.60;;;;;;5143872;27;20424;-77
2021/06/30 00:45:40;;;;;;;4.85;2.35;;;18.00;64.60;;;;;;5042999;27;2182080;-77
2021/06/30 00:48:35;;;;;;;6.43;2.85;;;18.00;64.60;;;;;;5126796;27;20403;-77
2021/06/30 00:51:24;;;;;;;7.53;3.45;;;18.00;64.60;;;;;;5061812;27;1281769;-78
2021/06/30 00:54:16;;;;;;;7.57;3.20;;;18.00;64.60;;;;;;5053958;27;1713362;-77
2021/06/30 00:57:08;;;;;;;5.55;2.72;;;17.90;64.70;;;;;;5115111;27;20423;-75
2021/06/30 00:59:59;;;;;;;7.57;2.78;;;17.90;64.70;;;;;;4987630;27;4022726;-77
2021/06/30 01:02:48;;;;;;;3.70;2.90;;;17.90;64.80;;;;;;5122714;27;20426;-75
2021/06/30 01:05:35;;;;;;;4.50;2.60;;;17.90;64.80;;;;;;4998036;27;3863500;-77
2021/06/30 01:08:27;;;;;;;3.10;2.35;;;17.90;64.80;;;;;;5115066;27;20406;-77
2021/06/30 01:11:18;;;;;;;4.43;2.83;;;17.90;64.90;;;;;;5018088;27;2634565;-76
2021/06/30 01:14:06;;;;;;;4.23;3.03;;;17.80;65.00;;;;;;5086313;27;1560709;-76
2021/06/30 01:16:52;;;;;;;3.90;2.63;;;17.80;65.00;;;;;;5138217;27;20406;-78
2021/06/30 01:19:37;;;;;;;6.47;2.88;;;17.80;65.10;;;;;;4971373;27;3933139;-76
2021/06/30 01:22:27;;;;;;;6.80;2.73;;;17.80;65.10;;;;;;5036720;27;2219119;-78
2021/06/30 01:25:23;;;;;;;4.45;3.33;;;17.80;65.10;;;;;;5121439;27;20419;-78
2021/06/30 01:28:12;;;;;;;5.10;3.10;;;17.80;65.10;;;;;;5116707;27;20426;-76
2021/06/30 01:31:00;;;;;;;8.07;3.13;;;17.70;65.10;;;;;;5012369;27;2668674;-77
2021/06/30 01:33:46;;;;;;;5.03;2.70;;;17.70;65.10;;;;;;5086735;27;1289926;-77
2021/06/30 01:36:49;;;;;;;4.00;2.80;;;17.70;65.10;;;;;;5066480;27;1979339;-77
2021/06/30 01:39:35;;;;;;;5.72;3.20;;;17.60;65.30;;;;;;5064314;27;1288071;-75
2021/06/30 01:42:21;;;;;;;;;;;17.70;65.20;;;;;;5065337;27;2071514;-75
2021/06/30 01:45:06;;;;;;;6.63;3.13;;;17.70;65.30;;;;;;4984886;27;3721458;-77
2021/06/30 01:47:50;;;;;;;4.93;3.30;;;17.60;65.20;;;;;;4991259;27;3479424;-77
2021/06/30 01:50:40;;;;;;;6.57;3.25;;;17.60;65.20;;;;;;5108709;27;20356;-75
2021/06/30 01:53:30;;;;;;;8.32;3.58;;;17.50;65.30;;;;;;5141993;27;20361;-77
2021/06/30 01:56:24;;;;;;;7.50;3.58;;;17.60;65.40;;;;;;5079624;27;1287528;-75
2021/06/30 01:59:14;;;;;;;5.82;3.13;;;17.50;65.40;;;;;;5141540;27;20553;-76
2021/06/30 02:02:02;;;;;;;6.10;3.40;;;17.50;65.40;;;;;;5075112;27;1282197;-75
2021/06/30 02:04:58;;;;;;;4.18;3.65;;;17.50;65.30;;;;;;5045744;27;2199127;-75
2021/06/30 02:07:51;;;;;;;4.72;3.58;;;17.50;65.40;;;;;;5115603;27;20423;-77
2021/06/30 02:10:44;;;;;;;5.78;3.67;;;17.50;65.50;;;;;;5113011;27;20777;-77
2021/06/30 02:13:31;;;;;;;6.72;3.95;;;17.50;65.50;;;;;;5023507;27;2691584;-77
2021/06/30 02:16:23;;;;;;;6.22;3.80;;;17.40;65.50;;;;;;5037316;27;2268211;-76
2021/06/30 02:19:12;;;;;;;8.50;3.72;;;17.40;65.50;;;;;;5140701;27;20883;-77
2021/06/30 02:22:03;;;;;;;6.25;3.60;;;17.40;65.50;;;;;;5028415;27;2670651;-77
2021/06/30 02:24:47;;;;;;;5.53;3.53;;;17.40;65.60;;;;;;5124277;27;20418;-78
2021/06/30 02:27:35;;;;;;;7.95;4.00;;;17.40;65.50;;;;;;5040230;27;2217518;-78
2021/06/30 02:30:24;;;;;;;7.75;3.63;;;17.30;65.50;;;;;;4997962;27;3737657;-77
2021/06/30 02:33:16;;;;;;;6.25;3.83;;;17.30;65.50;;;;;;5043969;27;2208918;-77
2021/06/30 02:36:03;;;;;;;8.70;4.05;;;17.30;65.50;;;;;;5055407;27;1861996;-77
2021/06/30 02:38:52;;;;;;;6.95;3.88;;;17.30;65.50;;;;;;5146159;27;20135;-75
2021/06/30 02:41:37;;;;;;;5.63;4.07;;;17.30;65.60;;;;;;5028965;27;2325246;-77
2021/06/30 02:44:29;;;;;;;5.63;3.85;;;17.30;65.60;;;;;;5047346;27;1364758;-75
2021/06/30 02:47:19;;;;;;;10.18;4.40;;;17.30;65.60;;;;;;5138797;27;20124;-77
2021/06/30 02:50:10;;;;;;;8.13;3.88;;;17.30;65.50;;;;;;5118726;27;20403;-77
2021/06/30 02:52:57;;;;;;;7.30;4.43;;;17.30;65.50;;;;;;5046415;27;2049968;-77
2021/06/30 02:55:38;;;;;;;5.78;4.07;;;17.30;65.50;;;;;;5041438;27;2176932;-77
2021/06/30 02:58:29;;;;;;;8.05;4.45;;;17.30;65.50;;;;;;5125436;27;20664;-77
2021/06/30 03:01:13;;;;;;;11.77;4.43;;;17.20;65.50;;;;;;4968824;27;3870503;-75
2021/06/30 03:03:59;;;;;;;6.60;4.30;;;17.20;65.50;;;;;;5024065;27;2690243;-77
2021/06/30 03:06:50;;;;;;;5.32;4.25;;;17.20;65.60;;;;;;5117845;27;20906;-77
2021/06/30 03:09:35;;;;;;;8.13;4.50;;;17.20;65.60;;;;;;5040839;27;2012537;-75
2021/06/30 03:12:23;;;;;;;6.05;4.50;;;17.10;65.80;;;;;;5143622;27;20149;-78
2021/06/30 03:15:13;;;;;;;6.57;4.72;;;17.20;65.60;;;;;;5134661;27;20443;-77
2021/06/30 03:17:58;;;;;;;8.80;4.70;;;17.10;65.50;;;;;;5116865;27;20902;-77
2021/06/30 03:20:45;;;;;;;8.87;4.90;;;17.20;65.40;;;;;;5019368;27;2654941;-77
2021/06/30 03:23:33;;;;;;;5.90;4.18;;;17.10;65.50;;;;;;5001398;27;3691392;-77
2021/06/30 03:26:22;;;;;;;11.23;4.55;;;17.10;65.40;;;;;;5141174;27;20397;-76
2021/06/30 03:29:11;;;;;;;6.63;4.72;;;17.10;65.30;;;;;;5116315;27;20428;-75
2021/06/30 03:32:05;;;;;;;6.50;4.72;;;17.20;65.20;;;;;;5047541;27;2187054;-75
2021/06/30 03:34:52;;;;;;;6.70;4.70;;;17.10;65.20;;;;;;5039743;27;2159776;-77
2021/06/30 03:37:41;;;;;;;7.22;4.60;;;17.10;65.10;;;;;;5038487;27;1893245;-77
2021/06/30 03:40:27;;;;;;;10.00;4.88;;;17.00;65.10;;;;;;4991310;27;3342169;-75
2021/06/30 03:43:13;;;;;;;11.75;4.88;;;17.00;65.10;;;;;;5138042;27;20124;-75
2021/06/30 03:45:57;;;;;;;6.82;4.10;;;17.00;65.10;;;;;;5073564;27;1517305;-77
2021/06/30 03:48:49;;;;;;;8.40;4.43;;;17.00;65.10;;;;;;5141132;27;20404;-77
2021/06/30 03:51:40;;;;;;;10.15;4.30;;;17.00;65.10;;;;;;5112634;27;20905;-75
2021/06/30 03:54:29;;;;;;;9.70;5.00;;;17.00;65.10;;;;;;5117379;27;20411;-77
2021/06/30 03:57:31;;;;;;;10.63;4.72;;;17.00;65.10;;;;;;5014546;27;2783164;-77
2021/06/30 04:00:27;;;;;;;5.63;4.32;;;16.90;65.10;;;;;;5133617;27;20433;-75
2021/06/30 04:03:13;;;;;;;6.78;4.80;;;16.90;65.10;;;;;;5128474;27;20369;-77
2021/06/30 04:05:59;;;;;;;7.55;4.75;;;16.90;65.10;;;;;;5031569;27;2343153;-77
2021/06/30 04:08:46;;;;;;;7.28;4.65;;;16.80;65.10;;;;;;5015988;27;3407194;-77
2021/06/30 04:11:34;;;;;;;9.83;5.30;;;16.80;65.10;;;;;;5045122;27;1383578;-77
2021/06/30 04:14:27;;;;;;;10.32;4.47;;;16.80;65.10;;;;;;5031816;27;2295197;-77
2021/06/30 04:17:12;;;;;;;9.82;4.90;;;16.80;65.10;;;;;;5026540;27;2715385;-75
2021/06/30 04:20:08;;;;;;;8.32;4.53;;;16.80;65.20;;;;;;5138540;27;20338;-77
2021/06/30 04:22:59;;;;;;;8.32;4.68;;;16.80;65.20;;;;;;5117468;27;20413;-77
2021/06/30 04:25:55;;;;;;;6.13;4.68;;;16.80;65.20;;;;;;5136747;27;20391;-77
2021/06/30 04:28:42;;;;;;;7.57;4.78;;;16.80;65.20;;;;;;5113228;27;20858;-76
2021/06/30 04:31:32;;;;;;;11.15;4.93;;;16.80;65.20;;;;;;5126016;27;20424;-77
2021/06/30 04:34:18;;;;;;;8.52;4.85;;;16.80;65.20;;;;;;5044990;27;2117425;-77
2021/06/30 04:37:02;;;;;;;6.10;4.60;;;16.80;65.20;;;;;;4954954;27;4452884;-77
2021/06/30 04:39:47;;;;;;;7.28;4.97;;;16.80;65.30;;;;;;4962914;27;3869184;-75
2021/06/30 04:42:33;;;;;;;9.07;4.47;;;16.80;65.20;;;;;;5043311;27;2057750;-77
2021/06/30 04:45:23;;;;;;;6.50;4.50;;;16.80;65.20;;;;;;5135696;27;20399;-77
2021/06/30 04:48:09;;;;;;;6.75;4.88;;;16.80;65.20;;;;;;5035099;27;2182855;-77
2021/06/30 04:50:57;;;;;;;8.73;4.88;;;16.80;65.40;;;;;;5106687;27;20434;-77
2021/06/30 04:53:49;;;;;;;7.93;4.82;;;16.80;65.30;;;;;;5139789;27;20410;-75
2021/06/30 04:56:42;;;;;;;6.65;4.22;;;16.80;65.20;;;;;;5142968;27;20126;-77
2021/06/30 04:59:28;;;;;;;8.60;4.93;;;16.80;65.10;;;;;;5142774;27;20388;-75
2021/06/30 05:02:13;;;;;;;6.47;4.80;;;16.80;65.10;;;;;;4980230;27;3908356;-77
2021/06/30 05:04:59;;;;;;;8.10;4.97;;;16.90;65.00;;;;;;5008092;27;3728990;-75
2021/06/30 05:07:45;;;;;;;8.77;4.65;;;16.80;65.00;;;;;;5001948;27;3693675;-77
2021/06/30 05:10:37;;;;;;;8.05;4.80;;;16.80;65.00;;;;;;5107527;27;20418;-77
2021/06/30 05:13:25;;;;;;;8.38;5.55;;;16.90;65.10;;;;;;5142072;27;20420;-75
2021/06/30 05:16:14;;;;;;;11.55;6.00;;;16.90;65.10;;;;;;5117843;27;20427;-77
2021/06/30 05:19:03;;;;;;;9.05;6.22;;;17.00;65.20;;;;;;5141809;27;20590;-77
2021/06/30 05:21:50;;;;;;;8.15;5.80;;;17.00;65.20;;;;;;5009432;27;2730312;-77
2021/06/30 05:24:33;;;;;;;9.93;7.07;;;17.00;65.10;;;;;;4956803;27;4023958;-77
2021/06/30 05:27:24;;;;;;;8.77;6.13;;;17.10;65.10;;;;;;5120252;27;20417;-77
2021/06/30 05:30:14;;;;;;;12.45;6.95;;;17.20;65.10;;;;;;5129960;27;20434;-77
2021/06/30 05:33:04;;;;;;;9.30;6.65;;;17.20;65.10;;;;;;5116627;27;20425;-77
2021/06/30 05:35:43;;;;;;;10.18;7.20;;;17.30;65.00;;;;;;4955675;27;4019678;-77
2021/06/30 05:38:33;;;;;;;11.32;6.57;;;17.30;65.00;;;;;;5119986;27;20437;-75
2021/06/30 05:41:19;;;;;;;9.23;6.57;;;17.30;64.90;;;;;;5019168;27;2676316;-77
2021/06/30 05:44:09;;;;;;;10.85;7.18;;;17.30;64.80;;;;;;5059770;27;1553306;-77
2021/06/30 05:46:52;;;;;;;11.65;7.50;;;17.50;64.60;;;;;;4988750;27;3655129;-77
2021/06/30 05:49:40;;;;;;;12.07;7.82;;;17.50;64.50;;;;;;5145367;27;20386;-77
2021/06/30 05:52:25;;;;;;;13.75;8.60;;;17.50;64.40;;;;;;5034563;27;2194256;-77
2021/06/30 05:55:14;;;;;;;12.38;7.90;;;17.60;64.50;;;;;;5136708;27;20161;-77
2021/06/30 05:58:03;;;;;;;14.38;8.65;;;17.60;64.40;;;;;;5126359;27;20391;-76
2021/06/30 06:00:49;;;;;;;12.80;9.15;;;17.70;64.20;;;;;;5016412;27;2650419;-77
2021/06/30 06:03:32;;;;;;;13.18;8.85;;;17.70;64.00;;;;;;5135908;27;20136;-77
2021/06/30 06:06:18;;;;;;;11.37;8.90;;;17.80;63.80;;;;;;5037280;27;2840183;-77
2021/06/30 06:09:09;;;;;;;11.52;8.75;;;17.80;63.70;;;;;;5136246;27;20888;-75
2021/06/30 06:11:54;;;;;;;14.43;9.43;;;17.80;63.50;;;;;;5110924;27;20775;-76
2021/06/30 06:14:40;;;;;;;12.25;9.57;;;17.90;63.40;;;;;;5018357;27;2462215;-77
2021/06/30 06:17:31;;;;;;;19.17;9.05;;;17.90;63.50;;;;;;5042398;27;2174666;-75
2021/06/30 06:20:21;;;;;;;16.10;9.95;;;17.90;63.40;;;;;;5137828;27;20307;-77
2021/06/30 06:23:10;;;;;;;12.73;9.20;;;17.90;63.40;;;;;;5137392;27;20387;-77
2021/06/30 06:26:00;;;;;;;13.80;9.13;;;17.90;63.30;;;;;;5139123;27;20409;-78
2021/06/30 06:28:48;;;;;;;13.07;9.35;;;18.00;63.30;;;;;;5025293;27;2495524;-78
2021/06/30 06:31:33;;;;;;;13.65;9.43;;;17.90;63.30;;;;;;4978275;27;4161902;-78
2021/06/30 06:34:20;;;;;;;12.68;9.07;;;18.00;63.30;;;;;;5013686;27;2873971;-75
2021/06/30 06:37:07;;;;;;;13.77;10.10;;;18.00;63.20;;;;;;5018124;27;2761249;-75
2021/06/30 06:39:53;;;;;;;13.80;10.00;;;18.00;63.30;;;;;;5028274;27;2441578;-77
2021/06/30 06:42:43;;;;;;;14.80;9.65;;;18.10;63.20;;;;;;5119703;27;20322;-77
2021/06/30 06:45:29;;;;;;;14.23;8.93;;;18.10;63.10;;;;;;4887597;27;5244697;-75
2021/06/30 06:48:17;;;;;;;11.30;9.07;;;18.20;63.00;;;;;;5010150;27;2418573;-75
2021/06/30 06:51:04;;;;;;;13.50;10.07;;;18.20;62.90;;;;;;5027503;27;2174992;-77
2021/06/30 06:53:47;;;;;;;18.27;10.75;;;18.20;62.90;;;;;;5022022;27;2702993;-75
2021/06/30 06:56:38;;;;;;;13.15;10.32;;;18.20;62.80;;;;;;5058024;27;1733364;-77
2021/06/30 06:59:32;;;;;;;18.23;10.93;;;18.20;62.80;;;;;;5039280;27;2141886;-75
2021/06/30 07:02:25;;;;;;;16.50;11.00;;;18.20;62.90;;;;;;5120600;27;20414;-77
2021/06/30 07:05:12;;;;;;;19.90;10.55;;;18.20;63.00;;;;;;5035355;27;2296825;-77
2021/06/30 07:07:55;;;;;;;17.10;11.10;;;18.20;62.90;;;;;;4939096;27;4626276;-77
2021/06/30 07:10:43;;;;;;;15.20;10.40;;;18.20;62.90;;;;;;4977556;27;3728502;-77
2021/06/30 07:13:32;;;;;;;16.50;11.32;;;18.20;62.80;;;;;;4960131;27;3995939;-75
2021/06/30 07:16:19;;;;;;;16.10;10.70;;;18.20;62.80;;;;;;5063135;27;1443790;-77
2021/06/30 07:19:16;;;;;;;17.25;10.95;;;18.20;62.90;;;;;;5041185;27;2174205;-75
2021/06/30 07:22:12;;;;;;;16.23;11.75;;;18.20;62.80;;;;;;5112160;27;20418;-77
2021/06/30 07:25:05;;;;;;;15.73;11.60;;;18.20;62.90;;;;;;5077480;27;1298667;-75
2021/06/30 07:27:50;;;;;;;19.88;11.93;;;18.20;62.90;;;;;;4941579;27;5006413;-75
2021/06/30 07:30:36;;;;;;;19.15;11.30;;;18.30;63.00;;;;;;5063414;27;2061240;-77
2021/06/30 07:33:24;;;;;;;19.50;12.10;;;18.30;63.20;;;;;;5021758;27;2749416;-75
2021/06/30 07:36:16;;;;;;;17.23;11.70;;;18.20;63.20;;;;;;5103999;27;20409;-77
2021/06/30 07:39:01;;;;;;;16.38;11.43;;;18.30;63.10;;;;;;4976668;27;4036330;-75
2021/06/30 07:41:46;;;;;;;18.52;12.38;;;18.30;63.10;;;;;;5022770;27;2340479;-77
2021/06/30 07:44:36;;;;;;;14.85;11.55;;;18.30;63.40;;;;;;5140596;27;20135;-76
2021/06/30 07:47:18;;;;;;;15.13;12.45;;;18.30;63.30;;;;;;5142336;27;20384;-75
2021/06/30 07:50:06;;;;;;;16.45;11.80;;;18.30;63.20;;;;;;5040800;27;2545827;-77
2021/06/30 07:52:48;;;;;;;16.55;11.88;;;18.30;63.10;;;;;;5048953;27;1880205;-77
2021/06/30 07:55:34;;;;;;;18.25;12.07;;;18.30;63.10;;;;;;5118293;27;20733;-75
2021/06/30 07:58:16;;;;;;;15.57;11.70;;;18.30;63.10;;;;;;4945078;27;4861484;-77
2021/06/30 08:01:04;;;;;;;17.75;12.75;;;18.30;63.20;;;;;;5128342;27;20414;-75
2021/06/30 08:03:45;;;;;;;17.35;12.15;;;18.30;63.20;;;;;;5074339;27;1308256;-77
2021/06/30 08:06:28;;;;;;;16.90;12.38;;;18.30;63.20;;;;;;5137129;27;20418;-75
2021/06/30 08:09:09;;;;;;;18.95;12.35;;;18.30;63.30;;;;;;5026441;27;2420203;-75
2021/06/30 08:12:10;;;;;;;15.70;11.50;;;18.30;63.30;;;;;;4998014;27;2782795;-75
2021/06/30 08:14:51;;;;;;;20.80;11.80;;;18.30;63.30;;;;;;5019978;27;2801774;-77
2021/06/30 08:17:30;;;;;;;16.23;11.45;;;18.30;63.40;;;;;;4977791;27;3936190;-77
2021/06/30 08:20:11;;;;;;;18.10;12.18;;;18.40;63.40;;;;;;5040774;27;1993888;-77
2021/06/30 08:22:52;;;;;;;18.67;11.50;;;18.50;63.40;;;;;;5054184;27;1380072;-77
2021/06/30 08:25:33;;;;;;;15.82;11.95;;;18.60;63.30;;;;;;5039563;27;2230689;-77
2021/06/30 08:28:23;;;;;;;18.13;12.00;;;18.60;63.10;;;;;;5039002;27;2195389;-75
2021/06/30 08:31:05;;;;;;;20.45;12.85;;;18.70;63.00;;;;;;5061759;27;1293917;-77
2021/06/30 08:33:46;;;;;;;14.07;10.90;;;18.80;62.80;;;;;;5035961;27;2313967;-75
2021/06/30 08:36:27;;;;;;;21.83;12.15;;;18.90;62.60;;;;;;5029307;27;2215725;-77
2021/06/30 08:39:12;;;;;;;18.38;12.20;;;19.00;62.50;;;;;;5140721;27;20132;-75
2021/06/30 08:41:54;;;;;;;17.55;11.80;;;19.10;62.30;;;;;;5024712;27;2582811;-75
2021/06/30 08:44:40;;;;;;;23.33;12.48;;;19.20;62.20;;;;;;5135774;27;20419;-77
2021/06/30 08:47:36;;;;;;;20.13;11.65;;;19.30;61.90;;;;;;5134730;27;20388;-75
2021/06/30 08:50:24;;;;;;;19.58;12.23;;;19.50;61.80;;;;;;5133008;27;20389;-77
2021/06/30 08:53:13;;;;;;;17.20;11.65;;;19.50;61.80;;;;;;5133806;27;20572;-77
2021/06/30 08:55:59;;;;;;;14.38;11.38;;;19.60;61.80;;;;;;5116579;27;20440;-75
2021/06/30 08:58:42;;;;;;;17.00;11.52;;;19.60;61.80;;;;;;5078331;27;1343146;-75
2021/06/30 09:01:21;;;;;;;16.27;12.40;;;19.60;61.70;;;;;;4899720;27;4002845;-77
2021/06/30 09:04:01;;;;;;;18.85;11.07;;;19.70;61.60;;;;;;5035143;27;2334860;-77
2021/06/30 09:06:42;;;;;;;18.52;11.57;;;19.70;61.60;;;;;;5046061;27;1983389;-75
2021/06/30 09:09:25;;;;;;;20.20;11.98;;;19.80;61.40;;;;;;5022711;27;2383277;-78
2021/06/30 09:12:12;;;;;;;16.35;11.65;;;19.80;61.30;;;;;;5136069;27;20430;-77
2021/06/30 09:15:17;;;;;;;16.00;11.30;;;19.80;61.30;;;;;;5031964;27;2363691;-75
2021/06/30 09:18:24;;;;;;;19.38;12.32;;;19.80;61.30;;;;;;5045754;27;1998956;-75
2021/06/30 09:21:23;;;;;;;18.17;12.25;;;19.90;61.20;;;;;;5126172;27;20945;-75
2021/06/30 09:24:08;;;;;;;22.45;12.65;;;19.90;61.20;;;;;;4888305;27;5880040;-75
2021/06/30 09:26:49;;;;;;;17.63;12.00;;;19.90;61.20;;;;;;4960288;27;4994991;-78
2021/06/30 09:29:35;;;;;;;21.63;11.57;;;20.00;61.10;;;;;;5010732;27;2862567;-76
2021/06/30 09:32:17;;;;;;;21.73;11.50;;;20.00;61.10;;;;;;4972080;27;3721616;-76
2021/06/30 09:35:19;;;;;;;22.00;11.30;;;20.00;61.10;;;;;;5053130;27;1408000;-74
2021/06/30 09:38:19;;;;;;;17.45;11.35;;;20.10;61.10;;;;;;4967831;27;4142661;-75
2021/06/30 09:41:04;;;;;;;19.92;10.75;;;20.10;61.10;;;;;;5128101;27;20410;-78
2021/06/30 09:43:48;;;;;;;17.83;11.93;;;20.10;61.00;;;;;;5135222;27;20431;-79
2021/06/30 09:46:36;;;;;;;18.50;12.35;;;20.20;61.10;;;;;;5138033;27;20497;-76
2021/06/30 09:49:26;;;;;;;19.50;11.73;;;20.20;61.10;;;;;;5135435;27;20866;-76
2021/06/30 09:52:18;;;;;;;20.50;11.98;;;20.30;61.10;;;;;;4954305;27;4502714;-78
2021/06/30 09:55:22;;;;;;;14.05;10.50;;;20.40;60.90;;;;;;5023910;27;2935409;-77
2021/06/30 09:58:04;;;;;;;16.88;10.85;;;20.50;60.70;;;;;;5051127;27;2024985;-77
2021/06/30 10:00:47;;;;;;;17.73;10.80;;;20.50;60.70;;;;;;4997679;27;2996548;-76
2021/06/30 10:03:39;;;;;;;15.07;10.15;;;20.50;60.60;;;;;;5132692;27;20146;-75
2021/06/30 10:06:32;;;;;;;19.35;10.85;;;20.60;60.50;;;;;;5115978;27;20417;-76
2021/06/30 10:09:18;;;;;;;15.30;10.57;;;20.60;60.50;;;;;;5093831;27;20395;-75
2021/06/30 10:12:11;;;;;;;18.95;11.93;;;20.60;60.50;;;;;;5066867;27;1354824;-77
2021/06/30 10:14:53;;;;;;;19.77;11.35;;;20.60;60.50;;;;;;5009624;27;3073656;-76
2021/06/30 10:17:36;;;;;;;19.17;12.05;;;20.50;60.60;;;;;;4869074;27;6519116;-76
2021/06/30 10:20:26;;;;;;;19.67;12.05;;;20.50;60.70;;;;;;5133812;27;20134;-75
2021/06/30 10:23:06;;;;;;;18.65;11.55;;;20.50;60.90;;;;;;4817631;28;5144427;-76
2021/06/30 10:25:47;;;;;;;16.63;11.18;;;20.40;61.10;;;;;;4999555;27;3318034;-78
2021/06/30 10:28:35;;;;;;;12.93;10.25;;;20.50;61.10;;;;;;4958091;27;4417837;-79
2021/06/30 10:31:18;;;;;;;15.68;11.43;;;20.60;60.90;;;;;;4966265;27;3188254;-77
2021/06/30 10:34:00;;;;;;;16.50;11.02;;;20.70;60.70;;;;;;4981995;27;3338252;-77
2021/06/30 10:36:50;;;;;;;19.17;11.02;;;20.80;60.60;;;;;;5134512;27;20135;-74
2021/06/30 10:39:35;;;;;;;13.03;9.43;;;20.80;60.50;;;;;;5011462;27;3010095;-74
2021/06/30 10:42:29;;;;;;;14.93;9.60;;;20.80;60.50;;;;;;4942189;27;4934050;-75
2021/06/30 10:45:14;;;;;;;13.55;9.70;;;20.80;60.40;;;;;;5138174;27;20132;-74
2021/06/30 10:48:07;;;;;;;17.25;10.10;;;20.90;60.20;;;;;;5125553;27;20468;-76
2021/06/30 10:50:57;;;;;;;23.60;12.40;;;21.00;60.10;;;;;;5058998;27;1440014;-74
2021/06/30 10:53:48;;;;;;;17.55;11.43;;;21.00;59.90;;;;;;5016165;27;2425442;-73
2021/06/30 10:56:34;;;;;;;13.98;10.38;;;21.00;59.90;;;;;;4979980;27;4205292;-74
2021/06/30 10:59:17;;;;;;;18.08;9.73;;;21.10;60.00;;;;;;5019931;27;2347170;-73
2021/06/30 11:02:12;;;;;;;15.32;9.93;;;21.10;60.00;;;;;;5036006;27;2534024;-74
2021/06/30 11:04:53;;;;;;;11.63;8.95;;;21.10;60.00;;;;;;5034113;27;2155703;-73
2021/06/30 11:07:36;;;;;;;15.93;9.35;;;21.10;60.00;;;;;;5054315;27;1428135;-74
2021/06/30 11:10:17;;;;;;;14.45;9.30;;;21.10;60.10;;;;;;5026131;27;2375790;-74
2021/06/30 11:13:01;;;;;;;15.50;8.57;;;21.20;60.10;;;;;;5051639;27;1728497;-75
2021/06/30 11:15:44;;;;;;;15.98;8.90;;;21.20;60.10;;;;;;5139272;27;20486;-73
2021/06/30 11:18:42;;;;;;;16.08;8.65;;;21.30;60.00;;;;;;5137082;27;19928;-73
2021/06/30 11:21:51;;;;;;;12.00;8.20;;;21.30;60.00;;;;;;5023406;27;2328585;-74
2021/06/30 11:24:39;;;;;;;13.55;8.27;;;21.40;59.90;;;;;;5138301;27;20142;-73
2021/06/30 11:27:24;;;;;;;15.48;8.50;;;21.40;59.90;;;;;;4984019;27;3791736;-73
2021/06/30 11:30:26;;;;;;;11.48;7.85;;;21.40;59.90;;;;;;5112790;27;20435;-73
2021/06/30 11:33:12;;;;;;;14.23;8.10;;;21.40;59.90;;;;;;5143329;27;20403;-72
2021/06/30 11:36:02;;;;;;;12.65;7.78;;;21.50;59.90;;;;;;5061180;27;1691295;-73
2021/06/30 11:38:45;;;;;;;15.30;8.65;;;21.50;59.90;;;;;;5138931;27;20408;-73
2021/06/30 11:41:33;;;;;;;11.95;7.72;;;21.50;59.90;;;;;;4994752;27;2993197;-73
2021/06/30 11:44:18;;;;;;;9.90;7.78;;;21.50;59.90;;;;;;4966349;27;4317797;-73
2021/06/30 11:47:05;;;;;;;10.02;7.55;;;21.50;59.90;;;;;;5135958;27;20135;-74
2021/06/30 11:50:04;;;;;;;14.00;7.57;;;21.50;60.00;;;;;;5137572;27;20435;-74
2021/06/30 11:52:48;;;;;;;14.80;7.93;;;21.60;60.00;;;;;;5040284;27;2236631;-74
2021/06/30 11:55:40;;;;;;;11.65;7.10;;;21.50;59.90;;;;;;5123772;27;20425;-76
2021/06/30 11:58:20;;;;;;;13.05;7.72;;;21.60;59.90;;;;;;4979744;27;3881027;-73
2021/06/30 12:01:26;;;;;;;12.77;7.70;;;21.60;59.90;;;;;;4874863;27;6355507;-75
2021/06/30 12:04:28;;;;;;;12.25;7.03;;;21.70;59.70;;;;;;5041305;27;1372383;-75
2021/06/30 12:07:25;;;;;;;9.80;7.13;;;21.80;59.50;;;;;;5025417;27;2544656;-75
2021/06/30 12:10:08;;;;;;;8.83;7.10;;;21.80;59.40;;;;;;5048311;27;1348680;-75
2021/06/30 12:12:52;;;;;;;9.57;7.53;;;21.80;59.30;;;;;;5003880;27;3141351;-75
2021/06/30 12:15:34;;;;;;;10.93;7.43;;;21.80;59.20;;;;;;5022572;27;2227746;-76
2021/06/30 12:18:24;;;;;;;19.48;7.43;;;21.80;59.20;;;;;;5037004;27;2021643;-75
2021/06/30 12:21:09;;;;;;;18.80;7.68;;;21.80;59.20;;;;;;5030544;27;2167702;-75
2021/06/30 12:23:56;;;;;;;12.95;7.78;;;21.90;59.10;;;;;;4910945;27;4841581;-77
2021/06/30 12:27:01;;;;;;;16.10;9.35;;;22.00;58.80;;;;;;4997656;27;3119661;-76
2021/06/30 12:29:53;;;;;;;13.75;8.50;;;22.00;58.70;;;;;;5056352;27;1876287;-74
2021/06/30 12:32:43;;;;;;;34.00;9.40;;;22.10;58.70;;;;;;5115782;27;20440;-76
2021/06/30 12:35:31;;;;;;;21.57;9.83;;;22.10;58.70;;;;;;5037194;27;2177478;-78
2021/06/30 12:38:23;;;;;;;16.43;9.00;;;22.20;58.80;;;;;;5066504;27;1412909;-77
2021/06/30 12:41:08;;;;;;;14.40;8.50;;;22.10;58.80;;;;;;5025459;27;2269210;-79
2021/06/30 12:44:00;;;;;;;19.02;8.60;;;22.20;58.90;;;;;;5100242;27;20874;-76
2021/06/30 12:46:39;;;;;;;16.67;9.23;;;22.20;59.00;;;;;;5050848;27;1886121;-75
2021/06/30 12:49:21;;;;;;;22.67;9.48;;;22.20;59.20;;;;;;5049725;27;2021332;-75
2021/06/30 12:52:06;;;;;;;18.23;10.60;;;22.20;59.20;;;;;;5072731;27;1375905;-75
2021/06/30 12:55:05;;;;;;;16.95;10.00;;;22.20;59.20;;;;;;4903379;27;5286809;-74
2021/06/30 12:58:04;;;;;;;14.73;9.18;;;22.20;59.10;;;;;;5045681;27;1387323;-74
2021/06/30 13:01:00;;;;;;;13.13;8.82;;;22.20;59.10;;;;;;4985619;27;3029002;-75
2021/06/30 13:03:50;;;;;;;12.90;9.00;;;22.20;59.10;;;;;;5017781;27;2878997;-75
2021/06/30 13:06:54;;;;;;;14.50;8.77;;;22.30;59.10;;;;;;5050383;27;1710651;-74
2021/06/30 13:09:50;;;;;;;16.00;8.20;;;22.30;59.10;;;;;;5114073;27;20436;-74
2021/06/30 13:12:29;;;;;;;13.77;8.18;;;22.30;59.10;;;;;;4891019;27;4883681;-76
2021/06/30 13:15:30;;;;;;;19.27;8.88;;;22.30;59.10;;;;;;5035920;27;2270021;-75
2021/06/30 13:18:18;;;;;;;17.67;8.60;;;22.30;59.10;;;;;;4977402;27;3720206;-76
2021/06/30 13:21:05;;;;;;;20.52;10.23;;;22.30;59.10;;;;;;4956977;27;3868614;-76
2021/06/30 13:23:59;;;;;;;17.77;9.25;;;22.30;59.00;;;;;;5030769;27;2081418;-76
2021/06/30 13:39:43;;;;;;;15.40;9.20;;;22.00;59.30;;;;;;5040184;27;2204523;-79
2021/06/30 13:42:23;;;;;;;17.17;9.80;;;22.00;59.40;;;;;;4967652;27;4303722;-79
2021/06/30 13:45:09;;;;;;;17.20;10.00;;;21.90;59.50;;;;;;5051867;27;1462122;-79
2021/06/30 13:47:54;;;;;;;16.98;9.35;;;21.80;59.50;;;;;;5140890;27;20143;-79
2021/06/30 13:50:41;;;;;;;18.63;9.35;;;21.80;59.70;;;;;;5040214;27;2140974;-79
2021/06/30 13:53:29;;;;;;;18.95;9.18;;;21.80;59.70;;;;;;4991962;27;3363736;-79
2021/06/30 13:56:11;;;;;;;12.75;9.02;;;21.80;59.80;;;;;;5038300;27;2263220;-79
2021/06/30 13:58:54;;;;;;;17.27;9.07;;;21.80;59.80;;;;;;5040503;27;2237941;-80
2021/06/30 14:01:35;;;;;;;14.82;9.60;;;21.80;59.80;;;;;;4964320;27;3969698;-79
2021/06/30 14:04:18;;;;;;;17.23;9.85;;;21.80;59.90;;;;;;5036670;27;2392957;-79
2021/06/30 14:06:58;;;;;;;22.77;10.07;;;21.80;59.90;;;;;;5044669;27;2222292;-78
2021/06/30 14:09:43;;;;;;;10.32;8.55;;;21.80;59.90;;;;;;5017927;27;2257939;-78
2021/06/30 14:12:30;;;;;;;16.45;9.07;;;21.80;60.00;;;;;;4875777;27;6665418;-78
2021/06/30 14:15:32;;;;;;;12.23;8.93;;;21.80;60.00;;;;;;5029875;27;2395121;-79
2021/06/30 14:18:14;;;;;;;16.25;10.23;;;21.80;59.90;;;;;;4912137;27;5285003;-78
2021/06/30 14:20:56;;;;;;;12.18;8.75;;;21.80;59.90;;;;;;5033973;27;2178891;-78
2021/06/30 14:23:44;;;;;;;14.90;9.18;;;21.80;60.20;;;;;;5114853;27;20437;-77